This is the latest recevied weather packets stored in our database for station/object E20TWR-1. If no packets are shown the sender has not sent any weather packets the latest 10 day(s).
| Time | Temp. | Humidity | Pressure | Rain* | Wind** | Luminosity | Snow |
|---|---|---|---|---|---|---|---|
| 1777157546 | 34.44° C | 54% | 1010 hPa | - | - | 0 W/m² | - |
| 1777156921 | 33.89° C | 54% | 1009 hPa | - | - | 0 W/m² | - |
| 1777156297 | 33.89° C | 55% | 1009 hPa | - | - | 0 W/m² | - |
| 1777155673 | 33.89° C | 56% | 1009 hPa | - | - | 0 W/m² | - |
| 1777155048 | 33.33° C | 58% | 1009 hPa | - | - | 0 W/m² | - |
| 1777154424 | 31.67° C | 61% | 1009 hPa | - | - | 0 W/m² | - |
| 1777153800 | 30° C | 64% | 1009 hPa | - | - | 0 W/m² | - |
| 1777134117 | 36.11° C | 48% | 1010 hPa | - | - | 0 W/m² | - |
| 1777133492 | 36.11° C | 48% | 1010 hPa | - | - | 0 W/m² | - |
| 1777132868 | 36.11° C | 48% | 1010 hPa | - | - | 0 W/m² | - |
| 1777132243 | 36.11° C | 48% | 1010 hPa | - | - | 0 W/m² | - |
| 1777131619 | 36.11° C | 48% | 1010 hPa | - | - | 0 W/m² | - |
| 1777130993 | 36.11° C | 48% | 1010 hPa | - | - | 0 W/m² | - |
| 1777130369 | 36.67° C | 48% | 1011 hPa | - | - | 0 W/m² | - |
| 1777129744 | 36.67° C | 48% | 1011 hPa | - | - | 0 W/m² | - |
| 1777129119 | 36.67° C | 48% | 1011 hPa | - | - | 0 W/m² | - |
| 1777128494 | 36.11° C | 49% | 1011 hPa | - | - | 0 W/m² | - |
| 1777127869 | 36.11° C | 49% | 1011 hPa | - | - | 0 W/m² | - |
| 1777127244 | 35.56° C | 51% | 1011 hPa | - | - | 0 W/m² | - |
| 1777126619 | 34.44° C | 53% | 1011 hPa | - | - | 0 W/m² | - |
| 1777125995 | 35° C | 52% | 1011 hPa | - | - | 0 W/m² | - |
| 1777125377 | 35° C | 52% | 1010 hPa | - | - | 0 W/m² | - |
| 1777124745 | 35° C | 52% | 1010 hPa | - | - | 0 W/m² | - |
| 1777124120 | 35° C | 52% | 1010 hPa | - | - | 0 W/m² | - |
| 1777123494 | 35° C | 52% | 1010 hPa | - | - | 0 W/m² | - |
* Rain since midnight (hover to see other rain measurements)
** Current wind speed in m/s (hover to see current wind gust speed)